BVX594Y EGLL-LCPH
Flight info
| Callsign | BVX594Y |
|---|---|
| Flight time | N/A |
| Altitude | 37000 |
| Route | DET L6 DVR UL9 KONAN UL607 MATUG DCT GUBAX DCT BOREP DCT ENITA DCT PEPIK DCT BERVA DCT ERGOM DCT TIMUR DCT ADORU UN739 EKI UW81 YAYLA UL854 KULAR UT39 TOMBI/N0445F330 M855 DASNI M32 TOBAL |
| Aircraft | A320/M-SDE3FGHIRWY/LB1 |
Departure
| Time | 2026-05-04 15:41 |
|---|---|
| Airport | London Heathrow Airport (EGLL) |
Arrival
| Time | N/A |
|---|---|
| Airport | Paphos International Airport (LCPH) |
| Time | Latitude | Longitude | Altitude | Speed | Heading |
|---|---|---|---|---|---|
| 2026-05-04 15:00 | 51.46913 | -0.48041 | 87 ft | 0 kts | 270° |
| 2026-05-04 15:24 | 51.46913 | -0.48005 | 88 ft | 4 kts | 270° |
| 2026-05-04 15:25 | 51.46913 | -0.47962 | 87 ft | 4 kts | 270° |
| 2026-05-04 15:25 | 51.46913 | -0.47926 | 87 ft | 4 kts | 278° |
| 2026-05-04 15:25 | 51.46904 | -0.47889 | 91 ft | 4 kts | 319° |
| 2026-05-04 15:26 | 51.46866 | -0.47871 | 87 ft | 0 kts | 360° |
| 2026-05-04 15:26 | 51.46876 | -0.47871 | 87 ft | 0 kts | 360° |
| 2026-05-04 15:28 | 51.46896 | -0.47871 | 88 ft | 7 kts | 360° |
| 2026-05-04 15:29 | 51.46946 | -0.47871 | 87 ft | 7 kts | 360° |
| 2026-05-04 15:30 | 51.47233 | -0.47872 | 87 ft | 13 kts | 360° |
| 2026-05-04 15:30 | 51.47417 | -0.47876 | 87 ft | 0 kts | 359° |
| 2026-05-04 15:32 | 51.47420 | -0.47876 | 87 ft | 2 kts | 359° |
| 2026-05-04 15:32 | 51.47489 | -0.47810 | 87 ft | 11 kts | 82° |
| 2026-05-04 15:33 | 51.47491 | -0.47490 | 87 ft | 18 kts | 89° |
| 2026-05-04 15:34 | 51.47494 | -0.46821 | 87 ft | 19 kts | 89° |
| 2026-05-04 15:34 | 51.47516 | -0.46610 | 87 ft | 20 kts | 91° |
| 2026-05-04 15:34 | 51.47516 | -0.46148 | 87 ft | 22 kts | 90° |
| 2026-05-04 15:35 | 51.47507 | -0.45688 | 88 ft | 20 kts | 95° |
| 2026-05-04 15:35 | 51.47508 | -0.45457 | 88 ft | 21 kts | 89° |
| 2026-05-04 15:35 | 51.47509 | -0.45213 | 90 ft | 22 kts | 90° |
| 2026-05-04 15:36 | 51.47511 | -0.44696 | 90 ft | 24 kts | 89° |
| 2026-05-04 15:36 | 51.47502 | -0.44423 | 87 ft | 25 kts | 89° |
| 2026-05-04 15:36 | 51.47504 | -0.44237 | 88 ft | 13 kts | 89° |
| 2026-05-04 15:37 | 51.47504 | -0.44151 | 87 ft | 3 kts | 89° |
| 2026-05-04 15:37 | 51.47505 | -0.44116 | 90 ft | 4 kts | 82° |
| 2026-05-04 15:37 | 51.47542 | -0.44066 | 88 ft | 10 kts | 9° |
| 2026-05-04 15:37 | 51.47592 | -0.43997 | 90 ft | 11 kts | 81° |
| 2026-05-04 15:38 | 51.47592 | -0.43888 | 87 ft | 9 kts | 90° |
| 2026-05-04 15:38 | 51.47602 | -0.43790 | 87 ft | 6 kts | 56° |
| 2026-05-04 15:38 | 51.47620 | -0.43771 | 87 ft | 1 kts | 22° |
| 2026-05-04 15:38 | 51.47625 | -0.43769 | 90 ft | 2 kts | 13° |
| 2026-05-04 15:39 | 51.47664 | -0.43789 | 91 ft | 10 kts | 331° |
| 2026-05-04 15:39 | 51.47742 | -0.43860 | 88 ft | 13 kts | 330° |
| 2026-05-04 15:39 | 51.47766 | -0.43982 | 87 ft | 0 kts | 268° |
| 2026-05-04 15:40 | 51.47766 | -0.43983 | 87 ft | 2 kts | 268° |
| 2026-05-04 15:40 | 51.47765 | -0.44287 | 86 ft | 63 kts | 270° |
| 2026-05-04 15:40 | 51.47761 | -0.45337 | 86 ft | 124 kts | 270° |
| 2026-05-04 15:41 | 51.47756 | -0.47002 | 90 ft | 171 kts | 270° |
| 2026-05-04 15:41 | 51.47754 | -0.48966 | 636 ft | 174 kts | 271° |
| 2026-05-04 15:41 | 51.47725 | -0.50920 | 1344 ft | 176 kts | 269° |
| 2026-05-04 15:41 | 51.47622 | -0.52892 | 2037 ft | 181 kts | 256° |
| 2026-05-04 15:42 | 51.46945 | -0.54691 | 2398 ft | 202 kts | 222° |
| 2026-05-04 15:42 | 51.45686 | -0.55804 | 2825 ft | 219 kts | 192° |
| 2026-05-04 15:42 | 51.44108 | -0.55694 | 3223 ft | 240 kts | 158° |
| 2026-05-04 15:42 | 51.42659 | -0.54184 | 3728 ft | 259 kts | 137° |
| 2026-05-04 15:43 | 51.41334 | -0.52152 | 4490 ft | 265 kts | 134° |
| 2026-05-04 15:43 | 51.40053 | -0.50045 | 5320 ft | 268 kts | 134° |
| 2026-05-04 15:43 | 51.38744 | -0.47883 | 6155 ft | 272 kts | 135° |
| 2026-05-04 15:43 | 51.37403 | -0.45712 | 6944 ft | 275 kts | 136° |
| 2026-05-04 15:44 | 51.36032 | -0.43537 | 7727 ft | 277 kts | 136° |
| 2026-05-04 15:44 | 51.34659 | -0.41387 | 8494 ft | 280 kts | 137° |
| 2026-05-04 15:44 | 51.33246 | -0.39196 | 9283 ft | 283 kts | 137° |
| 2026-05-04 15:44 | 51.31874 | -0.36905 | 10013 ft | 287 kts | 125° |
| 2026-05-04 15:45 | 51.31115 | -0.33914 | 10332 ft | 308 kts | 100° |
| 2026-05-04 15:45 | 51.30997 | -0.30357 | 10493 ft | 332 kts | 88° |
| 2026-05-04 15:45 | 51.31180 | -0.26569 | 10791 ft | 348 kts | 84° |
| 2026-05-04 15:45 | 51.31425 | -0.22676 | 11387 ft | 353 kts | 85° |
| 2026-05-04 15:46 | 51.31608 | -0.18722 | 12029 ft | 357 kts | 88° |
| 2026-05-04 15:46 | 51.31694 | -0.14787 | 12675 ft | 361 kts | 90° |
| 2026-05-04 15:46 | 51.31692 | -0.10737 | 13358 ft | 365 kts | 91° |
| 2026-05-04 15:46 | 51.31633 | -0.06654 | 13984 ft | 368 kts | 92° |
| 2026-05-04 15:47 | 51.31548 | -0.02530 | 14566 ft | 372 kts | 93° |
| 2026-05-04 15:47 | 51.31460 | 0.01568 | 15141 ft | 375 kts | 93° |
| 2026-05-04 15:47 | 51.31374 | 0.05771 | 15766 ft | 378 kts | 93° |
| 2026-05-04 15:47 | 51.31297 | 0.09955 | 16384 ft | 381 kts | 93° |
| 2026-05-04 15:48 | 51.31225 | 0.14217 | 16956 ft | 384 kts | 93° |
| 2026-05-04 15:48 | 51.31155 | 0.18514 | 17506 ft | 387 kts | 93° |
| 2026-05-04 15:48 | 51.31013 | 0.27162 | 18542 ft | 393 kts | 93° |
| 2026-05-04 15:49 | 51.30937 | 0.31551 | 18994 ft | 396 kts | 93° |
| 2026-05-04 15:49 | 51.30860 | 0.35926 | 19436 ft | 399 kts | 94° |
| 2026-05-04 15:49 | 51.30778 | 0.40388 | 19880 ft | 402 kts | 94° |
| 2026-05-04 15:49 | 51.30691 | 0.44899 | 20326 ft | 405 kts | 94° |
| 2026-05-04 15:50 | 51.30603 | 0.49369 | 20753 ft | 408 kts | 94° |
| 2026-05-04 15:50 | 51.30513 | 0.53923 | 21194 ft | 410 kts | 94° |
| 2026-05-04 15:50 | 51.30367 | 0.58495 | 21613 ft | 412 kts | 99° |
| 2026-05-04 15:50 | 51.29826 | 0.62937 | 22016 ft | 412 kts | 108° |
| 2026-05-04 15:51 | 51.29017 | 0.67357 | 22420 ft | 415 kts | 108° |
| 2026-05-04 15:51 | 51.28198 | 0.71813 | 22837 ft | 417 kts | 109° |
| 2026-05-04 15:51 | 51.27383 | 0.76247 | 23234 ft | 420 kts | 109° |
| 2026-05-04 15:51 | 51.26558 | 0.80736 | 23623 ft | 423 kts | 109° |
| 2026-05-04 15:52 | 51.25735 | 0.85211 | 23964 ft | 425 kts | 109° |
| 2026-05-04 15:52 | 51.24899 | 0.89758 | 24304 ft | 427 kts | 109° |
| 2026-05-04 15:52 | 51.24058 | 0.94322 | 24635 ft | 429 kts | 109° |
| 2026-05-04 15:52 | 51.23210 | 0.98910 | 24992 ft | 429 kts | 109° |
| 2026-05-04 15:53 | 51.22373 | 1.03422 | 25355 ft | 430 kts | 109° |
| 2026-05-04 15:53 | 51.21514 | 1.08026 | 25685 ft | 432 kts | 109° |
| 2026-05-04 15:53 | 51.20649 | 1.12634 | 26013 ft | 434 kts | 109° |
| 2026-05-04 15:53 | 51.19789 | 1.17206 | 26329 ft | 435 kts | 109° |
| 2026-05-04 15:54 | 51.18916 | 1.21851 | 26633 ft | 437 kts | 109° |
| 2026-05-04 15:54 | 51.18035 | 1.26521 | 26951 ft | 439 kts | 109° |
| 2026-05-04 15:54 | 51.17151 | 1.31199 | 27243 ft | 441 kts | 109° |
| 2026-05-04 15:54 | 51.16383 | 1.35906 | 27523 ft | 445 kts | 103° |
| 2026-05-04 15:55 | 51.16027 | 1.40860 | 27798 ft | 450 kts | 97° |
| 2026-05-04 15:55 | 51.15798 | 1.45863 | 28048 ft | 452 kts | 97° |
| 2026-05-04 15:55 | 51.15564 | 1.50814 | 28299 ft | 454 kts | 97° |
| 2026-05-04 15:55 | 51.15315 | 1.55865 | 28563 ft | 456 kts | 97° |
| 2026-05-04 15:56 | 51.15065 | 1.60859 | 28823 ft | 457 kts | 97° |
| 2026-05-04 15:56 | 51.14809 | 1.65939 | 29085 ft | 459 kts | 97° |
| 2026-05-04 15:56 | 51.14555 | 1.71022 | 29336 ft | 461 kts | 97° |
| 2026-05-04 15:56 | 51.14303 | 1.76082 | 29584 ft | 462 kts | 97° |
| 2026-05-04 15:57 | 51.14051 | 1.81202 | 29898 ft | 462 kts | 97° |
| 2026-05-04 15:57 | 51.13796 | 1.86314 | 30241 ft | 461 kts | 97° |
| 2026-05-04 15:57 | 51.13535 | 1.91425 | 30533 ft | 460 kts | 98° |
| 2026-05-04 15:57 | 51.13273 | 1.96432 | 30853 ft | 459 kts | 98° |
| 2026-05-04 15:58 | 51.13004 | 2.01501 | 31141 ft | 458 kts | 98° |
| 2026-05-04 15:58 | 51.12737 | 2.06570 | 31418 ft | 458 kts | 98° |
| 2026-05-04 15:58 | 51.12472 | 2.11636 | 31693 ft | 458 kts | 98° |
| 2026-05-04 15:58 | 51.12204 | 2.16692 | 31966 ft | 458 kts | 98° |
| 2026-05-04 15:59 | 51.11933 | 2.21678 | 32234 ft | 458 kts | 98° |
| 2026-05-04 15:59 | 51.11652 | 2.26735 | 32503 ft | 458 kts | 98° |